Hlavní strana
METAR-TAF:

METAR-TAF

Letiště :

Ammán, Jordánsko

zeměpisná šířka: 31-59N, zeměpisná délka: 035-59E, výška: 767 m

Aktuální stav počasí

Zpráva byla vytvořena před 24 minutami, v 05:00 UTC
Bezvětří
Teplota 10°C
Vlhkost vzduchu 93%
Tlak 1025 hPa
Viditelnost: 1800 m
kouřmo

METAR: OJAM 170500Z 00000KT 1800 BR NSC 10/09 Q1025 NOSIG

Čas: 07:24 (05:24 UTC)

Předpověď počasí

Zpráva byla vytvořena před 7 hodinami a 18 minutami, v 22:06 UTC
Předpověď platná od 17 v 00 UTC do 18 v 06 UTC
Západojihozápadní vítr 5 kt
Viditelnost: 4000 m
Polojasno ve výšce 3500 ft
kouřmo
Pravděpodobnost 40% :
Dočasný
od 17 v 00 UTC do 17 v 07 UTC
vítr z různých směrů 2 kt
Viditelnost: 0500 m
mlha
Změna
od 17 v 08 UTC do 17 v 10 UTC
Jihojihovýchodní vítr 8 kt
Viditelnost: 5000 m
Skoro jasno ve výšce 3500 ft
zákal

TAF: OJAM 162206Z 1700/1806 25005KT 4000 BR SCT035 PROB40 TEMPO 1700/1707 VRB02KT 0500 FG BECMG 1708/1710 15008KT 5000 HZ FEW035

Stav a předpovědi počasí z více než 4 000 letišť (zprávy METAR a TAF).

Červené a žluté tečky na mapě představují dostupné meteorologické stanice.

Když kurzor umístíte na tečku, zobrazí se název stanice.

Pak kliknutím zobrazíte stav a předpověď počasí.

Chcete-li změnit mapu, kliknutím na zelené tlačítko se znaménkem +mapu přiblížíte, kliknutím na zelené tlačítko se znaménkem – mapu oddálíte a kliknutím na zelené šipky přejdete na sousední mapy.


METAR-TAF: